createdAt,value
2023-05-09T00:00:01.256Z,1.07
2023-05-09T00:01:01.320Z,1.34
2023-05-09T00:02:01.356Z,1.12
2023-05-09T00:03:01.344Z,1.10
2023-05-09T00:04:01.313Z,1.15
2023-05-09T00:05:01.307Z,0.77
2023-05-09T00:06:01.301Z,0.97
2023-05-09T00:07:01.373Z,1.10
2023-05-09T00:08:01.323Z,1.09
2023-05-09T00:09:01.425Z,0.99
2023-05-09T00:10:01.335Z,0.98
2023-05-09T00:11:01.347Z,0.99
2023-05-09T00:12:01.380Z,1.01
2023-05-09T00:13:01.447Z,1.18
2023-05-09T00:14:01.372Z,0.89
2023-05-09T00:15:01.403Z,0.94
2023-05-09T00:16:01.409Z,0.93
2023-05-09T00:17:01.422Z,1.21
2023-05-09T00:18:01.442Z,0.88
2023-05-09T00:19:01.413Z,1.00
2023-05-09T00:20:01.469Z,1.18
2023-05-09T00:21:01.493Z,0.98
2023-05-09T00:22:01.501Z,0.90
2023-05-09T00:23:01.469Z,1.06
2023-05-09T00:24:01.492Z,0.94
2023-05-09T00:25:01.587Z,0.97
2023-05-09T00:26:03.273Z,1.07
2023-05-09T00:27:01.622Z,1.28
2023-05-09T00:28:01.590Z,1.61
2023-05-09T00:29:01.539Z,1.00
2023-05-09T00:30:01.604Z,0.95
2023-05-09T00:31:01.580Z,0.78
2023-05-09T00:32:01.677Z,0.98
2023-05-09T00:33:01.718Z,1.31
2023-05-09T00:34:01.628Z,0.87
2023-05-09T00:35:01.606Z,1.03
2023-05-09T00:36:01.639Z,1.02
2023-05-09T00:37:01.634Z,0.90
2023-05-09T00:38:01.675Z,1.03
2023-05-09T00:39:01.690Z,1.05
2023-05-09T00:40:01.672Z,0.97
2023-05-09T00:41:01.742Z,0.89
2023-05-09T00:42:01.722Z,0.94
2023-05-09T00:43:01.699Z,0.86
2023-05-09T00:44:01.730Z,1.11
2023-05-09T00:45:01.718Z,0.88
2023-05-09T00:46:01.933Z,0.92
2023-05-09T00:47:01.751Z,1.32
2023-05-09T00:48:01.824Z,0.82
2023-05-09T00:49:01.748Z,0.90
2023-05-09T00:50:01.789Z,0.91
2023-05-09T00:51:01.802Z,1.03
2023-05-09T00:52:01.822Z,0.99
2023-05-09T00:53:01.873Z,0.95
2023-05-09T00:54:01.800Z,1.32
2023-05-09T00:55:01.813Z,0.70
2023-05-09T00:56:01.812Z,0.78
2023-05-09T00:57:01.890Z,1.09
2023-05-09T00:58:01.927Z,1.00
2023-05-09T00:59:01.851Z,0.88
2023-05-09T01:00:01.866Z,0.95
2023-05-09T01:01:01.901Z,1.06
2023-05-09T01:02:01.901Z,1.27
2023-05-09T01:03:01.971Z,0.90
2023-05-09T01:04:01.895Z,1.00
2023-05-09T01:05:01.934Z,1.10
2023-05-09T01:06:02.808Z,1.03
2023-05-09T01:07:01.919Z,1.12
2023-05-09T01:08:01.964Z,1.07
2023-05-09T01:09:01.956Z,0.83
2023-05-09T01:10:01.977Z,1.19
2023-05-09T01:11:01.975Z,0.97
2023-05-09T01:12:01.988Z,0.92
2023-05-09T01:13:02.173Z,0.94
2023-05-09T01:14:02.012Z,1.17
2023-05-09T01:15:02.004Z,0.96
2023-05-09T01:16:02.044Z,1.35
2023-05-09T01:17:02.047Z,0.99
2023-05-09T01:18:02.075Z,1.08
2023-05-09T01:19:02.043Z,1.14
2023-05-09T01:20:02.101Z,1.16
2023-05-09T01:21:02.053Z,0.96
2023-05-09T01:22:02.067Z,1.63
2023-05-09T01:23:02.096Z,1.03
2023-05-09T01:24:02.067Z,0.93
2023-05-09T01:25:02.067Z,1.15
2023-05-09T01:26:02.192Z,0.98
2023-05-09T01:27:02.133Z,1.08
2023-05-09T01:28:02.159Z,1.00
2023-05-09T01:29:02.226Z,1.26
2023-05-09T01:30:02.148Z,0.97
2023-05-09T01:31:02.205Z,0.90
2023-05-09T01:32:02.215Z,0.68
2023-05-09T01:33:02.212Z,1.30
2023-05-09T01:34:02.238Z,1.13
2023-05-09T01:35:02.233Z,0.87
2023-05-09T01:36:02.283Z,0.96
2023-05-09T01:37:02.321Z,1.15
2023-05-09T01:38:02.283Z,1.08
2023-05-09T01:39:02.319Z,1.27
2023-05-09T01:40:02.338Z,1.17
2023-05-09T01:41:02.346Z,0.88
2023-05-09T01:42:02.502Z,1.03
2023-05-09T01:43:02.393Z,1.11
2023-05-09T01:44:02.424Z,0.91
2023-05-09T01:45:02.493Z,1.15
2023-05-09T01:46:02.429Z,1.22
2023-05-09T01:47:02.477Z,1.13
2023-05-09T01:48:02.510Z,0.96
2023-05-09T01:49:02.454Z,0.97
2023-05-09T01:50:02.490Z,0.94
2023-05-09T01:51:02.450Z,1.33
2023-05-09T01:52:02.485Z,1.30
2023-05-09T01:53:02.514Z,0.93
2023-05-09T01:54:02.542Z,1.07
2023-05-09T01:55:02.613Z,1.25
2023-05-09T01:56:02.569Z,1.19
2023-05-09T01:57:02.809Z,1.00
2023-05-09T01:58:02.580Z,1.01
2023-05-09T01:59:02.587Z,1.04
2023-05-09T02:00:02.613Z,1.08
2023-05-09T02:01:02.738Z,1.03
2023-05-09T02:02:02.638Z,1.14
2023-05-09T02:03:02.675Z,1.13
2023-05-09T02:04:02.620Z,1.06
2023-05-09T02:05:02.677Z,0.81
2023-05-09T02:06:03.400Z,0.95
2023-05-09T02:07:02.744Z,1.04
2023-05-09T02:08:02.765Z,1.28
2023-05-09T02:09:02.781Z,1.03
2023-05-09T02:10:02.781Z,1.22
2023-05-09T02:11:02.945Z,1.14
2023-05-09T02:12:02.876Z,1.09
2023-05-09T02:13:02.973Z,1.22
2023-05-09T02:14:02.916Z,1.44
2023-05-09T02:15:02.917Z,0.90
2023-05-09T02:16:03.013Z,0.80
2023-05-09T02:17:03.152Z,1.01
2023-05-09T02:18:03.042Z,0.95
2023-05-09T02:19:03.065Z,0.93
2023-05-09T02:20:03.064Z,1.21
2023-05-09T02:21:03.183Z,1.18
2023-05-09T02:22:03.110Z,0.90
2023-05-09T02:23:03.172Z,0.85
2023-05-09T02:24:03.109Z,1.25
2023-05-09T02:25:03.094Z,1.10
2023-05-09T02:26:03.078Z,1.10
2023-05-09T02:27:03.152Z,1.14
2023-05-09T02:28:03.117Z,1.24
2023-05-09T02:29:03.143Z,1.22
2023-05-09T02:30:03.108Z,0.92
2023-05-09T02:31:03.158Z,0.90
2023-05-09T02:32:03.264Z,1.10
2023-05-09T02:33:03.318Z,1.01
2023-05-09T02:34:03.184Z,1.00
2023-05-09T02:35:03.240Z,1.01
2023-05-09T02:36:03.251Z,1.32
2023-05-09T02:37:03.310Z,0.96
2023-05-09T02:38:03.315Z,0.78
2023-05-09T02:39:03.278Z,0.89
2023-05-09T02:40:03.289Z,0.85
2023-05-09T02:41:03.283Z,0.88
2023-05-09T02:42:03.337Z,1.21
2023-05-09T02:43:03.347Z,1.04
2023-05-09T02:44:03.357Z,0.87
2023-05-09T02:45:03.379Z,1.04
2023-05-09T02:46:03.481Z,0.91
2023-05-09T02:47:03.433Z,0.96
2023-05-09T02:48:04.198Z,0.92
2023-05-09T02:49:03.505Z,0.89
2023-05-09T02:50:03.436Z,0.89
2023-05-09T02:51:03.450Z,0.73
2023-05-09T02:52:03.488Z,0.79
2023-05-09T02:53:03.483Z,1.11
2023-05-09T02:54:03.507Z,0.73
2023-05-09T02:55:03.497Z,1.09
2023-05-09T02:56:03.540Z,1.01
2023-05-09T02:57:03.543Z,1.09
2023-05-09T02:58:12.832Z,0.80
2023-05-09T02:59:04.541Z,1.07
2023-05-09T03:00:03.552Z,1.12
2023-05-09T03:01:03.561Z,1.46
2023-05-09T03:02:03.507Z,0.87
2023-05-09T03:03:03.504Z,0.80
2023-05-09T03:04:03.505Z,0.96
2023-05-09T03:05:03.596Z,0.98
2023-05-09T03:06:03.474Z,1.09
2023-05-09T03:07:03.492Z,0.77
2023-05-09T03:08:03.478Z,1.13
2023-05-09T03:09:03.540Z,1.07
2023-05-09T03:10:03.467Z,1.11
2023-05-09T03:11:03.438Z,0.90
2023-05-09T03:12:03.415Z,0.96
2023-05-09T03:13:03.525Z,1.44
2023-05-09T03:14:03.434Z,0.90
2023-05-09T03:15:03.392Z,1.04
2023-05-09T03:16:03.527Z,1.06
2023-05-09T03:17:04.362Z,1.26
2023-05-09T03:18:03.481Z,1.18
2023-05-09T03:19:03.422Z,1.06
2023-05-09T03:20:04.282Z,1.26
2023-05-09T03:21:03.445Z,1.14
2023-05-09T03:22:03.425Z,1.18
2023-05-09T03:23:03.344Z,1.02
2023-05-09T03:24:03.364Z,1.35
2023-05-09T03:25:03.318Z,0.85
2023-05-09T03:26:03.350Z,1.11
2023-05-09T03:27:03.360Z,0.95
2023-05-09T03:28:03.324Z,0.82
2023-05-09T03:29:03.301Z,1.13
2023-05-09T03:30:03.316Z,0.90
2023-05-09T03:31:03.317Z,0.91
2023-05-09T03:32:03.296Z,0.95
2023-05-09T03:33:03.300Z,1.01
2023-05-09T03:34:03.339Z,0.79
2023-05-09T03:35:03.291Z,0.82
2023-05-09T03:36:03.256Z,1.10
2023-05-09T03:37:03.367Z,0.92
2023-05-09T03:38:03.259Z,0.76
2023-05-09T03:39:03.233Z,1.04
2023-05-09T03:40:03.241Z,1.14
2023-05-09T03:41:03.207Z,1.02
2023-05-09T03:42:03.249Z,1.12
2023-05-09T03:43:03.205Z,1.34
2023-05-09T03:44:03.213Z,1.26
2023-05-09T03:45:03.189Z,0.78
2023-05-09T03:46:03.202Z,1.28
2023-05-09T03:47:03.344Z,0.93
2023-05-09T03:48:03.311Z,1.12
2023-05-09T03:49:03.159Z,1.23
2023-05-09T03:50:03.180Z,1.08
2023-05-09T03:51:03.187Z,0.82
2023-05-09T03:52:03.160Z,1.02
2023-05-09T03:53:03.204Z,1.20
2023-05-09T03:54:03.151Z,0.95
2023-05-09T03:55:03.128Z,1.01
2023-05-09T03:56:03.159Z,1.02
2023-05-09T03:57:03.155Z,1.00
2023-05-09T03:58:03.121Z,1.17
2023-05-09T03:59:03.132Z,0.94
2023-05-09T04:00:03.165Z,0.79
2023-05-09T04:01:03.130Z,0.96
2023-05-09T04:02:03.146Z,1.23
2023-05-09T04:03:03.227Z,1.21
2023-05-09T04:04:03.156Z,1.00
2023-05-09T04:05:03.145Z,1.05
2023-05-09T04:06:03.117Z,1.00
2023-05-09T04:07:03.121Z,0.92
2023-05-09T04:08:03.154Z,0.90
2023-05-09T04:09:03.213Z,1.18
2023-05-09T04:10:03.140Z,1.06
2023-05-09T04:11:03.151Z,1.28
2023-05-09T04:12:03.121Z,0.81
2023-05-09T04:13:03.438Z,1.09
2023-05-09T04:14:03.210Z,0.92
2023-05-09T04:15:03.121Z,0.81
2023-05-09T04:16:03.153Z,1.26
2023-05-09T04:17:03.187Z,0.92
2023-05-09T04:18:03.139Z,0.97
2023-05-09T04:19:03.097Z,0.92
2023-05-09T04:20:03.139Z,1.03
2023-05-09T04:21:03.095Z,1.39
2023-05-09T04:22:03.124Z,0.81
2023-05-09T04:23:03.148Z,0.95
2023-05-09T04:24:03.127Z,0.86
2023-05-09T04:25:03.179Z,0.79
2023-05-09T04:26:03.188Z,0.86
2023-05-09T04:27:03.205Z,0.94
2023-05-09T04:28:03.167Z,0.81
2023-05-09T04:29:03.127Z,0.96
2023-05-09T04:30:03.142Z,0.93
2023-05-09T04:31:03.211Z,1.00
2023-05-09T04:32:03.134Z,0.90
2023-05-09T04:33:03.154Z,1.09
2023-05-09T04:34:03.435Z,1.11
2023-05-09T04:35:03.094Z,0.99
2023-05-09T04:36:03.125Z,0.98
2023-05-09T04:37:03.132Z,1.54
2023-05-09T04:38:03.186Z,0.85
2023-05-09T04:39:03.123Z,0.84
2023-05-09T04:40:03.151Z,0.78
2023-05-09T04:41:03.176Z,1.33
2023-05-09T04:42:03.986Z,0.92
2023-05-09T04:43:03.144Z,1.16
2023-05-09T04:44:03.108Z,1.30
2023-05-09T04:45:03.152Z,1.07
2023-05-09T04:46:03.172Z,1.09
2023-05-09T04:47:03.114Z,0.86
2023-05-09T04:48:03.171Z,1.06
2023-05-09T04:49:03.154Z,1.14
2023-05-09T04:50:03.130Z,1.22
2023-05-09T04:51:03.091Z,1.09
2023-05-09T04:52:03.104Z,1.20
2023-05-09T04:53:03.125Z,1.09
2023-05-09T04:54:03.093Z,0.79
2023-05-09T04:55:03.123Z,1.08
2023-05-09T04:56:03.153Z,0.98
2023-05-09T04:57:16.680Z,0.71
2023-05-09T04:58:04.135Z,0.97
2023-05-09T04:59:03.144Z,0.91
2023-05-09T05:00:03.172Z,1.02
2023-05-09T05:01:03.142Z,1.31
2023-05-09T05:02:03.306Z,0.98
2023-05-09T05:03:03.208Z,0.90
2023-05-09T05:04:03.083Z,1.34
2023-05-09T05:05:11.563Z,0.94
2023-05-09T05:06:04.093Z,1.14
2023-05-09T05:07:03.073Z,1.13
2023-05-09T05:08:03.087Z,0.94
2023-05-09T05:09:03.070Z,0.89
2023-05-09T05:10:03.034Z,1.04
2023-05-09T05:11:03.125Z,1.00
2023-05-09T05:12:04.851Z,1.10
2023-05-09T05:13:03.225Z,0.78
2023-05-09T05:14:03.011Z,1.12
2023-05-09T05:15:03.002Z,1.22
2023-05-09T05:16:03.022Z,0.91
2023-05-09T05:17:03.022Z,0.93
2023-05-09T05:18:03.048Z,1.01
2023-05-09T05:19:03.063Z,1.00
2023-05-09T05:20:03.008Z,1.13
2023-05-09T05:21:02.982Z,0.97
2023-05-09T05:22:02.952Z,0.90
2023-05-09T05:23:03.031Z,1.15
2023-05-09T05:24:02.983Z,1.08
2023-05-09T05:25:03.022Z,1.10
2023-05-09T05:26:02.917Z,1.05
2023-05-09T05:27:02.993Z,0.90
2023-05-09T05:28:02.970Z,1.24
2023-05-09T05:29:02.996Z,1.03
2023-05-09T05:30:02.913Z,1.26
2023-05-09T05:31:02.920Z,0.94
2023-05-09T05:32:02.925Z,1.07
2023-05-09T05:33:02.947Z,1.12
2023-05-09T05:34:02.915Z,1.16
2023-05-09T05:35:02.876Z,2.20
2023-05-09T05:36:02.867Z,2.69
2023-05-09T05:37:02.978Z,4.89
2023-05-09T05:38:02.848Z,5.38
2023-05-09T05:39:02.854Z,9.76
2023-05-09T05:40:02.872Z,8.20
2023-05-09T05:41:02.846Z,10.11
2023-05-09T05:42:02.814Z,9.98
2023-05-09T05:43:02.838Z,9.99
2023-05-09T05:44:02.850Z,10.12
2023-05-09T05:45:03.067Z,10.66
2023-05-09T05:46:02.794Z,9.66
2023-05-09T05:47:02.805Z,10.01
2023-05-09T05:48:03.174Z,10.03
2023-05-09T05:49:02.830Z,9.97
2023-05-09T05:50:02.768Z,10.25
2023-05-09T05:51:02.794Z,9.98
2023-05-09T05:52:02.798Z,9.89
2023-05-09T05:53:02.782Z,10.18
2023-05-09T05:54:02.736Z,9.27
2023-05-09T05:55:02.797Z,10.02
2023-05-09T05:56:02.757Z,10.51
2023-05-09T05:57:02.750Z,9.40
2023-05-09T05:58:02.723Z,9.62
2023-05-09T05:59:02.737Z,10.15
2023-05-09T06:00:02.739Z,9.11
2023-05-09T06:01:02.806Z,9.60
2023-05-09T06:02:02.783Z,9.13
2023-05-09T06:03:03.468Z,9.40
2023-05-09T06:04:02.780Z,9.63
2023-05-09T06:05:02.661Z,9.06
2023-05-09T06:06:02.687Z,9.94
2023-05-09T06:07:02.715Z,9.10
2023-05-09T06:08:03.109Z,8.89
2023-05-09T06:09:02.795Z,10.34
2023-05-09T06:10:02.624Z,9.30
2023-05-09T06:11:02.637Z,8.63
2023-05-09T06:12:02.660Z,10.24
2023-05-09T06:13:02.668Z,9.91
2023-05-09T06:14:02.594Z,9.83
2023-05-09T06:15:02.595Z,9.46
2023-05-09T06:16:15.089Z,10.62
2023-05-09T06:17:03.715Z,10.25
2023-05-09T06:18:02.573Z,11.24
2023-05-09T06:19:02.550Z,12.24
2023-05-09T06:20:02.548Z,11.62
2023-05-09T06:21:02.544Z,12.34
2023-05-09T06:22:02.572Z,13.15
2023-05-09T06:23:02.560Z,12.88
2023-05-09T06:24:11.925Z,14.95
2023-05-09T06:25:03.536Z,14.54
2023-05-09T06:26:02.581Z,15.79
2023-05-09T06:27:02.502Z,15.57
2023-05-09T06:28:02.646Z,14.74
2023-05-09T06:29:02.497Z,14.85
2023-05-09T06:30:08.328Z,14.05
2023-05-09T06:31:03.513Z,13.60
2023-05-09T06:32:02.508Z,14.35
2023-05-09T06:33:02.560Z,14.87
2023-05-09T06:34:02.498Z,13.23
2023-05-09T06:35:02.462Z,12.98
2023-05-09T06:36:02.466Z,13.51
2023-05-09T06:37:02.503Z,14.85
2023-05-09T06:38:02.927Z,14.32
2023-05-09T06:39:02.931Z,18.67
2023-05-09T06:40:02.743Z,15.62
2023-05-09T06:41:02.773Z,17.58
2023-05-09T06:42:02.909Z,18.42
2023-05-09T06:43:02.907Z,19.92
2023-05-09T06:44:02.937Z,20.23
2023-05-09T06:45:03.018Z,18.11
2023-05-09T06:46:03.078Z,17.03
2023-05-09T06:47:03.134Z,18.25
2023-05-09T06:48:03.218Z,18.68
2023-05-09T06:49:03.331Z,18.34
2023-05-09T06:50:03.287Z,18.11
2023-05-09T06:51:03.366Z,18.41
2023-05-09T06:52:03.376Z,18.13
2023-05-09T06:53:03.482Z,18.52
2023-05-09T06:54:03.460Z,18.06
2023-05-09T06:55:03.548Z,18.58
2023-05-09T06:56:03.602Z,18.04
2023-05-09T06:57:03.613Z,16.46
2023-05-09T06:58:03.717Z,16.03
2023-05-09T06:59:03.729Z,17.88
2023-05-09T07:00:03.800Z,16.01
2023-05-09T07:01:03.853Z,18.58
2023-05-09T07:02:04.007Z,17.84
2023-05-09T07:03:04.021Z,17.72
2023-05-09T07:04:04.041Z,17.02
2023-05-09T07:05:04.221Z,16.65
2023-05-09T07:06:04.152Z,16.60
2023-05-09T07:07:04.287Z,15.95
2023-05-09T07:08:04.317Z,14.52
2023-05-09T07:09:04.392Z,14.91
2023-05-09T07:10:11.079Z,15.07
2023-05-09T07:11:05.386Z,14.83
2023-05-09T07:12:04.437Z,14.90
2023-05-09T07:13:04.441Z,15.74
2023-05-09T07:14:04.408Z,14.80
2023-05-09T07:15:04.385Z,17.85
2023-05-09T07:16:04.377Z,17.43
2023-05-09T07:17:21.229Z,16.44
2023-05-09T07:18:05.470Z,16.14
2023-05-09T07:19:04.408Z,17.08
2023-05-09T07:20:04.371Z,18.14
2023-05-09T07:21:04.428Z,18.52
2023-05-09T07:22:04.470Z,19.42
2023-05-09T07:23:04.396Z,18.16
2023-05-09T07:24:04.411Z,15.80
2023-05-09T07:25:04.319Z,16.45
2023-05-09T07:26:04.327Z,16.88
2023-05-09T07:27:04.418Z,15.98
2023-05-09T07:28:04.273Z,16.23
2023-05-09T07:29:04.352Z,15.48
2023-05-09T07:30:04.549Z,14.75
2023-05-09T07:31:04.416Z,16.03
2023-05-09T07:32:04.502Z,19.03
2023-05-09T07:33:04.522Z,28.41
2023-05-09T07:34:04.940Z,31.90
2023-05-09T07:35:04.574Z,34.21
2023-05-09T07:36:04.634Z,33.41
2023-05-09T07:37:04.746Z,30.73
2023-05-09T07:38:04.669Z,32.00
2023-05-09T07:39:05.490Z,32.66
2023-05-09T07:40:04.849Z,31.76
2023-05-09T07:41:04.829Z,32.43
2023-05-09T07:42:04.856Z,31.28
2023-05-09T07:43:05.017Z,30.04
2023-05-09T07:44:04.938Z,30.03
2023-05-09T07:45:04.997Z,27.98
2023-05-09T07:46:05.119Z,28.12
2023-05-09T07:47:05.161Z,28.09
2023-05-09T07:48:05.184Z,26.87
2023-05-09T07:49:05.215Z,27.25
2023-05-09T07:50:05.331Z,25.63
2023-05-09T07:51:05.365Z,28.20
2023-05-09T07:52:05.441Z,25.40
2023-05-09T07:53:05.495Z,26.36
2023-05-09T07:54:05.529Z,25.52
2023-05-09T07:55:05.539Z,26.16
2023-05-09T07:56:05.643Z,24.37
2023-05-09T07:57:05.715Z,24.49
2023-05-09T07:58:05.831Z,24.53
2023-05-09T07:59:05.798Z,23.91
2023-05-09T08:00:05.846Z,23.51
2023-05-09T08:01:05.911Z,24.06
2023-05-09T08:02:06.035Z,23.02
2023-05-09T08:03:06.332Z,22.16
2023-05-09T08:04:06.200Z,22.23
2023-05-09T08:05:06.166Z,23.47
2023-05-09T08:06:06.230Z,21.26
2023-05-09T08:07:06.952Z,22.06
2023-05-09T08:08:06.391Z,21.55
2023-05-09T08:09:06.605Z,20.80
2023-05-09T08:10:06.524Z,21.22
2023-05-09T08:11:06.590Z,22.14
2023-05-09T08:12:06.668Z,22.68
2023-05-09T08:13:06.860Z,21.29
2023-05-09T08:14:06.798Z,20.45
2023-05-09T08:15:06.851Z,21.17
2023-05-09T08:16:06.891Z,21.85
2023-05-09T08:17:07.021Z,21.19
2023-05-09T08:18:07.124Z,21.64
2023-05-09T08:19:07.121Z,22.38
2023-05-09T08:20:07.127Z,20.76
2023-05-09T08:21:07.196Z,22.73
2023-05-09T08:22:07.226Z,20.33
2023-05-09T08:23:07.303Z,21.76
2023-05-09T08:24:07.464Z,20.03
2023-05-09T08:25:07.493Z,19.84
2023-05-09T08:26:07.512Z,19.49
2023-05-09T08:27:07.688Z,20.89
2023-05-09T08:28:07.687Z,19.59
2023-05-09T08:29:08.016Z,20.22
2023-05-09T08:30:07.768Z,21.39
2023-05-09T08:31:07.801Z,18.79
2023-05-09T08:32:07.860Z,19.64
2023-05-09T08:33:08.022Z,19.31
2023-05-09T08:34:07.969Z,19.53
2023-05-09T08:35:08.041Z,18.51
2023-05-09T08:36:08.163Z,18.40
2023-05-09T08:37:08.181Z,19.85
2023-05-09T08:38:08.233Z,19.64
2023-05-09T08:39:08.497Z,19.84
2023-05-09T08:40:08.476Z,19.14
2023-05-09T08:41:08.472Z,20.48
2023-05-09T08:42:08.486Z,18.78
2023-05-09T08:43:08.540Z,19.20
2023-05-09T08:44:08.610Z,17.70
2023-05-09T08:45:08.623Z,18.43
2023-05-09T08:46:08.767Z,19.09
2023-05-09T08:47:08.929Z,16.25
2023-05-09T08:48:08.845Z,13.88
2023-05-09T08:49:09.527Z,13.64
2023-05-09T08:50:08.998Z,13.30
2023-05-09T08:51:08.914Z,11.27
2023-05-09T08:52:08.947Z,12.92
2023-05-09T08:53:08.949Z,13.60
2023-05-09T08:54:10.032Z,12.77
2023-05-09T08:55:09.012Z,13.15
2023-05-09T08:56:09.140Z,11.58
2023-05-09T08:57:09.184Z,12.32
2023-05-09T08:58:09.135Z,11.25
2023-05-09T08:59:09.134Z,11.27
2023-05-09T09:00:09.222Z,11.21
2023-05-09T09:01:09.233Z,9.89
2023-05-09T09:02:09.290Z,9.74
2023-05-09T09:03:09.365Z,9.44
2023-05-09T09:04:09.343Z,9.35
2023-05-09T09:05:19.587Z,8.93
2023-05-09T09:06:10.390Z,8.01
2023-05-09T09:07:09.351Z,8.82
2023-05-09T09:08:09.322Z,8.40
2023-05-09T09:09:09.366Z,8.55
2023-05-09T09:10:09.329Z,7.98
2023-05-09T09:11:09.307Z,9.99
2023-05-09T09:12:09.317Z,7.41
2023-05-09T09:13:09.436Z,7.37
2023-05-09T09:14:09.314Z,7.33
2023-05-09T09:15:09.300Z,6.82
2023-05-09T09:16:09.353Z,6.99
2023-05-09T09:17:09.290Z,6.64
2023-05-09T09:18:09.499Z,6.66
2023-05-09T09:19:09.318Z,6.38
2023-05-09T09:20:09.318Z,6.30
2023-05-09T09:21:09.267Z,5.99
2023-05-09T09:22:09.298Z,5.87
2023-05-09T09:23:09.318Z,6.16
2023-05-09T09:24:09.364Z,6.49
2023-05-09T09:25:09.359Z,5.79
2023-05-09T09:26:09.408Z,5.13
2023-05-09T09:27:09.409Z,6.14
2023-05-09T09:28:09.433Z,6.27
2023-05-09T09:29:09.555Z,5.63
2023-05-09T09:30:09.508Z,5.45
2023-05-09T09:31:09.538Z,5.45
2023-05-09T09:32:09.577Z,5.03
2023-05-09T09:33:09.628Z,39.83
2023-05-09T09:34:10.032Z,90.26
2023-05-09T09:35:09.607Z,132.23
2023-05-09T09:36:09.672Z,61.33
2023-05-09T09:37:09.660Z,46.77
2023-05-09T09:38:09.821Z,41.02
2023-05-09T09:39:09.737Z,39.88
2023-05-09T09:40:09.687Z,38.20
2023-05-09T09:41:09.768Z,38.83
2023-05-09T09:42:09.723Z,37.09
2023-05-09T09:43:09.823Z,38.34
2023-05-09T09:44:09.819Z,32.85
2023-05-09T09:45:09.864Z,30.12
2023-05-09T09:46:09.784Z,28.73
2023-05-09T09:47:09.764Z,27.60
2023-05-09T09:48:09.905Z,27.44
2023-05-09T09:49:09.837Z,25.53
2023-05-09T09:50:09.803Z,25.29
2023-05-09T09:51:09.804Z,24.23
2023-05-09T09:52:09.935Z,22.26
2023-05-09T09:53:10.004Z,20.83
2023-05-09T09:54:09.851Z,21.49
2023-05-09T09:55:09.819Z,20.25
2023-05-09T09:56:09.841Z,20.13
2023-05-09T09:57:09.856Z,19.19
2023-05-09T09:58:09.941Z,18.71
2023-05-09T09:59:09.863Z,16.37
2023-05-09T10:00:09.868Z,16.29
2023-05-09T10:01:10.041Z,15.57
2023-05-09T10:02:09.867Z,14.28
2023-05-09T10:03:09.956Z,14.56
2023-05-09T10:04:09.960Z,12.83
2023-05-09T10:05:09.912Z,12.57
2023-05-09T10:06:10.006Z,13.36
2023-05-09T10:07:11.555Z,11.80
2023-05-09T10:08:09.910Z,12.52
2023-05-09T10:09:09.886Z,12.56
2023-05-09T10:10:09.926Z,11.56
2023-05-09T10:11:09.881Z,10.82
2023-05-09T10:12:09.859Z,10.52
2023-05-09T10:13:09.881Z,10.49
2023-05-09T10:14:09.877Z,9.51
2023-05-09T10:15:09.849Z,10.04
2023-05-09T10:16:10.012Z,9.54
2023-05-09T10:17:09.977Z,9.53
2023-05-09T10:18:09.953Z,8.22
2023-05-09T10:19:09.867Z,8.73
2023-05-09T10:20:09.823Z,8.41
2023-05-09T10:21:09.939Z,8.13
2023-05-09T10:22:09.807Z,8.26
2023-05-09T10:23:09.773Z,6.62
2023-05-09T10:24:09.782Z,6.96
2023-05-09T10:25:09.775Z,6.43
2023-05-09T10:26:09.788Z,6.27
2023-05-09T10:27:09.761Z,5.96
2023-05-09T10:28:09.825Z,8.57
2023-05-09T10:29:10.102Z,86.96
2023-05-09T10:30:09.758Z,78.90
2023-05-09T10:31:09.859Z,24.70
2023-05-09T10:32:09.740Z,25.03
2023-05-09T10:33:09.752Z,23.55
2023-05-09T10:34:09.721Z,23.52
2023-05-09T10:35:09.732Z,22.36
2023-05-09T10:36:09.838Z,21.12
2023-05-09T10:37:09.711Z,18.61
2023-05-09T10:38:09.746Z,19.55
2023-05-09T10:39:09.715Z,17.63
2023-05-09T10:40:09.677Z,17.25
2023-05-09T10:41:09.698Z,15.65
2023-05-09T10:42:09.749Z,12.22
2023-05-09T10:43:09.677Z,13.48
2023-05-09T10:44:09.710Z,12.97
2023-05-09T10:45:09.759Z,12.24
2023-05-09T10:46:09.754Z,11.00
2023-05-09T10:47:09.725Z,10.38
2023-05-09T10:48:09.615Z,9.17
2023-05-09T10:49:09.694Z,9.54
2023-05-09T10:50:09.687Z,10.42
2023-05-09T10:51:09.669Z,8.47
2023-05-09T10:52:09.723Z,7.56
2023-05-09T10:53:09.626Z,7.43
2023-05-09T10:54:09.568Z,6.11
2023-05-09T10:55:09.588Z,6.84
2023-05-09T10:56:09.565Z,6.20
2023-05-09T10:57:09.582Z,5.88
2023-05-09T10:58:09.543Z,6.23
2023-05-09T10:59:09.564Z,4.59
2023-05-09T11:00:09.568Z,5.99
2023-05-09T11:01:09.569Z,5.48
2023-05-09T11:02:09.528Z,4.50
2023-05-09T11:03:09.517Z,4.79
2023-05-09T11:04:09.503Z,4.46
2023-05-09T11:05:09.609Z,4.00
2023-05-09T11:06:09.497Z,4.22
2023-05-09T11:07:09.524Z,3.71
2023-05-09T11:08:09.491Z,4.07
2023-05-09T11:09:09.485Z,4.54
2023-05-09T11:10:09.484Z,3.71
2023-05-09T11:11:09.467Z,4.02
2023-05-09T11:12:09.525Z,3.32
2023-05-09T11:13:09.567Z,4.02
2023-05-09T11:14:09.620Z,3.35
2023-05-09T11:15:09.677Z,3.14
2023-05-09T11:16:09.810Z,3.30
2023-05-09T11:17:09.784Z,3.53
2023-05-09T11:18:09.938Z,3.47
2023-05-09T11:19:09.941Z,2.89
2023-05-09T11:20:10.098Z,3.55
2023-05-09T11:21:10.129Z,2.68
2023-05-09T11:22:10.095Z,2.95
2023-05-09T11:23:10.133Z,2.97
2023-05-09T11:24:10.429Z,2.52
2023-05-09T11:25:10.260Z,2.11
2023-05-09T11:26:10.342Z,2.42
2023-05-09T11:27:10.347Z,2.03
2023-05-09T11:28:10.414Z,2.18
2023-05-09T11:29:10.386Z,1.96
2023-05-09T11:30:10.374Z,1.73
2023-05-09T11:31:10.416Z,2.14
2023-05-09T11:32:10.387Z,2.58
2023-05-09T11:33:10.395Z,1.36
2023-05-09T11:34:10.389Z,1.85
2023-05-09T11:35:10.478Z,2.06
2023-05-09T11:36:10.380Z,1.69
2023-05-09T11:37:10.427Z,1.85
2023-05-09T11:38:10.394Z,1.52
2023-05-09T11:39:10.426Z,1.90
2023-05-09T11:40:10.386Z,1.92
2023-05-09T11:41:10.362Z,1.93
2023-05-09T11:42:10.369Z,1.61
2023-05-09T11:43:10.354Z,1.68
2023-05-09T11:44:10.381Z,1.85
2023-05-09T11:45:10.394Z,1.98
2023-05-09T11:46:10.468Z,1.87
2023-05-09T11:47:10.391Z,1.68
2023-05-09T11:48:10.450Z,1.52
2023-05-09T11:49:11.982Z,1.61
2023-05-09T11:50:10.395Z,1.92
2023-05-09T11:51:10.416Z,1.73
2023-05-09T11:52:10.410Z,1.40
2023-05-09T11:53:10.483Z,1.52
2023-05-09T11:54:10.406Z,2.45
2023-05-09T11:55:12.469Z,1.79
2023-05-09T11:56:10.431Z,1.56
2023-05-09T11:57:10.441Z,2.14
2023-05-09T11:58:10.449Z,1.33
2023-05-09T11:59:10.471Z,1.44
2023-05-09T12:00:10.545Z,1.51
2023-05-09T12:01:11.945Z,1.59
2023-05-09T12:02:10.536Z,1.26
2023-05-09T12:03:10.708Z,1.33
2023-05-09T12:04:10.557Z,1.40
2023-05-09T12:05:10.522Z,1.55
2023-05-09T12:06:10.508Z,1.40
2023-05-09T12:07:10.539Z,1.26
2023-05-09T12:08:10.545Z,1.58
2023-05-09T12:09:10.641Z,1.62
2023-05-09T12:10:10.546Z,1.60
2023-05-09T12:11:10.610Z,1.33
2023-05-09T12:12:10.660Z,1.31
2023-05-09T12:13:10.728Z,1.27
2023-05-09T12:14:10.618Z,1.46
2023-05-09T12:15:11.099Z,1.18
2023-05-09T12:16:10.638Z,1.23
2023-05-09T12:17:10.637Z,0.99
2023-05-09T12:18:10.686Z,1.76
2023-05-09T12:19:10.706Z,1.09
2023-05-09T12:20:10.781Z,0.98
2023-05-09T12:21:10.837Z,0.91
2023-05-09T12:22:10.699Z,1.19
2023-05-09T12:23:10.719Z,0.85
2023-05-09T12:24:10.736Z,1.42
2023-05-09T12:25:11.177Z,0.87
2023-05-09T12:26:10.728Z,1.17
2023-05-09T12:27:10.756Z,1.28
2023-05-09T12:28:10.825Z,1.25
2023-05-09T12:29:10.878Z,1.51
2023-05-09T12:30:11.096Z,1.46
2023-05-09T12:31:10.890Z,1.03
2023-05-09T12:32:10.845Z,1.17
2023-05-09T12:33:10.940Z,0.79
2023-05-09T12:34:10.881Z,1.24
2023-05-09T12:35:11.242Z,0.89
2023-05-09T12:36:11.086Z,1.08
2023-05-09T12:37:10.995Z,0.88
2023-05-09T12:38:10.958Z,0.68
2023-05-09T12:39:10.966Z,0.84
2023-05-09T12:40:10.989Z,0.52
2023-05-09T12:42:10.987Z,1.25
2023-05-09T12:43:11.007Z,0.80
2023-05-09T12:44:11.139Z,0.74
2023-05-09T12:45:11.324Z,0.84
2023-05-09T12:46:11.043Z,0.98
2023-05-09T12:47:11.373Z,0.74
2023-05-09T12:48:11.176Z,1.13
2023-05-09T12:49:11.362Z,0.94
2023-05-09T12:50:11.583Z,1.27
2023-05-09T12:51:11.165Z,1.40
2023-05-09T12:52:11.209Z,1.18
2023-05-09T12:53:11.260Z,1.19
2023-05-09T12:54:11.145Z,1.08
2023-05-09T12:55:11.461Z,1.09
2023-05-09T12:56:11.183Z,1.05
2023-05-09T12:57:11.271Z,1.15
2023-05-09T12:58:11.289Z,0.88
2023-05-09T12:59:11.456Z,1.12
2023-05-09T13:00:11.317Z,1.10
2023-05-09T13:01:11.296Z,1.06
2023-05-09T13:02:11.350Z,1.10
2023-05-09T13:03:11.401Z,1.06
2023-05-09T13:04:12.649Z,0.99
2023-05-09T13:05:11.397Z,0.87
2023-05-09T13:06:11.407Z,1.14
2023-05-09T13:07:11.466Z,1.14
2023-05-09T13:08:11.453Z,1.21
2023-05-09T13:09:11.485Z,1.06
2023-05-09T13:10:12.610Z,1.14
2023-05-09T13:11:16.110Z,1.10